Time;durP1;ratioP1;P1;durP2;ratioP2;P2;SDS_P1;SDS_P2;PMS_P1;PMS_P2;Temp;Humidity;BMP_temperature;BMP_pressure;BME280_temperature;BME280_humidity;BME280_pressure;Samples;Min_cycle;Max_cycle;Signal;HPM_P1;HPM_P2
2022/05/07 00:00:38;;;;;;;21.42;19.23;;;;;;;-145.50;100.00;65435.88;5061765;28;20048;-68
2022/05/07 00:03:05;;;;;;;22.38;19.58;;;;;;;-145.50;100.00;65435.88;5075312;28;20518;-69
2022/05/07 00:05:32;;;;;;;23.48;20.55;;;;;;;-145.50;100.00;65435.88;5084402;28;20147;-69
2022/05/07 00:07:58;;;;;;;21.85;18.50;;;;;;;-145.50;100.00;65435.88;5064934;28;20137;-69
2022/05/07 00:10:25;;;;;;;24.48;20.02;;;;;;;-145.50;100.00;65435.88;5059621;28;20059;-69
2022/05/07 00:12:52;;;;;;;23.67;19.20;;;;;;;-145.50;100.00;65435.88;5085759;28;20627;-69
2022/05/07 00:15:18;;;;;;;21.63;19.33;;;;;;;-145.50;100.00;65435.88;5066325;28;20059;-68
2022/05/07 00:18:05;;;;;;;23.58;19.02;;;;;;;-145.50;100.00;65435.88;5066570;28;20063;-69
2022/05/07 00:20:33;;;;;;;20.77;18.58;;;;;;;-145.50;100.00;65435.88;5059204;28;20056;-70
2022/05/07 00:23:00;;;;;;;24.40;18.97;;;;;;;-145.50;100.00;65435.88;5067371;28;20048;-69
2022/05/07 00:25:28;;;;;;;23.35;19.10;;;;;;;-145.50;100.00;65435.88;5073319;28;20539;-69
2022/05/07 00:27:54;;;;;;;21.33;19.02;;;;;;;-145.50;100.00;65435.88;5056210;28;20061;-69
2022/05/07 00:30:21;;;;;;;22.73;19.40;;;;;;;-145.50;100.00;65435.88;5075203;28;20060;-69
2022/05/07 00:32:47;;;;;;;22.88;19.25;;;;;;;-145.50;100.00;65435.88;5052599;28;20140;-69
2022/05/07 00:35:14;;;;;;;20.70;18.33;;;;;;;-145.50;100.00;65435.88;5058083;28;20052;-69
2022/05/07 00:37:40;;;;;;;26.80;23.67;;;;;;;-145.50;100.00;65435.88;5055009;28;20516;-71
2022/05/07 00:40:08;;;;;;;27.80;24.80;;;;;;;-145.50;100.00;65435.88;5070082;28;20596;-69
2022/05/07 00:42:35;;;;;;;25.17;22.50;;;;;;;-145.50;100.00;65435.88;5067159;28;20052;-70
2022/05/07 00:45:01;;;;;;;25.75;21.02;;;;;;;-145.50;100.00;65435.88;5071152;28;20049;-69
2022/05/07 00:47:34;;;;;;;26.38;21.90;;;;;;;-145.50;100.00;65435.88;5075481;28;20133;-70
2022/05/07 00:52:47;;;;;;;23.10;20.70;;;;;;;-145.50;100.00;65435.88;5060409;28;20070;-69
2022/05/07 00:55:15;;;;;;;24.90;22.38;;;;;;;-145.50;100.00;65435.88;5056435;28;20040;-69
2022/05/07 00:57:42;;;;;;;24.75;22.20;;;;;;;-145.50;100.00;65435.88;5045477;28;20057;-69
2022/05/07 01:00:12;;;;;;;24.75;22.27;;;;;;;-145.50;100.00;65435.88;5062164;28;20052;-69
2022/05/07 01:02:39;;;;;;;30.67;24.55;;;;;;;-145.50;100.00;65435.88;5048519;28;20555;-69
2022/05/07 01:05:06;;;;;;;27.65;24.50;;;;;;;-145.50;100.00;65435.88;5078466;28;20503;-69
2022/05/07 01:07:34;;;;;;;28.58;25.55;;;;;;;-145.50;100.00;65435.88;5054622;28;20171;-69
2022/05/07 01:10:02;;;;;;;;;;;;;;;-145.50;100.00;65435.88;5046520;28;20044;-69
2022/05/07 01:12:30;;;;;;;28.00;24.98;;;;;;;-145.50;100.00;65435.88;5055439;28;19924;-69
2022/05/07 01:14:57;;;;;;;27.80;24.80;;;;;;;-145.50;100.00;65435.88;5058653;28;20048;-69
2022/05/07 01:17:24;;;;;;;27.10;24.20;;;;;;;-145.50;100.00;65435.88;5062292;28;20056;-68
2022/05/07 01:19:52;;;;;;;26.52;23.23;;;;;;;-145.50;100.00;65435.88;5067097;28;20785;-69
2022/05/07 01:22:20;;;;;;;28.97;24.43;;;;;;;-145.50;100.00;65435.88;5063451;28;20471;-69
2022/05/07 01:24:46;;;;;;;26.83;22.85;;;;;;;-145.50;100.00;65435.88;5057445;28;20039;-69
2022/05/07 01:27:13;;;;;;;27.13;24.00;;;;;;;-145.50;100.00;65435.88;5070637;28;20056;-69
2022/05/07 01:29:39;;;;;;;27.77;23.92;;;;;;;-145.50;100.00;65435.88;5064097;28;20393;-70
2022/05/07 01:32:06;;;;;;;26.92;23.92;;;;;;;-145.50;100.00;65435.88;5055654;28;20055;-69
2022/05/07 01:34:33;;;;;;;26.77;23.88;;;;;;;-145.50;100.00;65435.88;5062278;28;20056;-69
2022/05/07 01:36:59;;;;;;;35.35;30.73;;;;;;;-145.50;100.00;65435.88;5075795;28;20075;-68
2022/05/07 01:39:25;;;;;;;27.23;24.42;;;;;;;-145.50;100.00;65435.88;5067354;28;20048;-69
2022/05/07 01:41:52;;;;;;;26.70;23.75;;;;;;;-145.50;100.00;65435.88;5054779;28;20062;-69
2022/05/07 01:44:18;;;;;;;26.27;23.48;;;;;;;-145.50;100.00;65435.88;5073793;28;20044;-68
2022/05/07 01:49:30;;;;;;;25.85;22.52;;;;;;;-145.50;100.00;65435.88;5070764;28;20561;-68
2022/05/07 01:51:56;;;;;;;27.83;23.30;;;;;;;-145.50;100.00;65435.88;5062076;28;20058;-70
2022/05/07 01:54:23;;;;;;;24.88;22.27;;;;;;;-145.50;100.00;65435.88;5055222;28;20527;-70
2022/05/07 01:56:49;;;;;;;27.10;22.95;;;;;;;-145.50;100.00;65435.88;5052386;28;20728;-70
2022/05/07 01:59:16;;;;;;;24.25;21.65;;;;;;;-145.50;100.00;65435.88;5049911;28;20076;-68
2022/05/07 02:01:42;;;;;;;25.17;22.48;;;;;;;-145.50;100.00;65435.88;5066735;28;20063;-68
2022/05/07 02:04:10;;;;;;;26.25;22.77;;;;;;;-145.50;100.00;65435.88;5061717;28;20219;-68
2022/05/07 02:06:36;;;;;;;24.60;21.98;;;;;;;-145.50;100.00;65435.88;5069395;28;20051;-68
2022/05/07 02:09:03;;;;;;;25.58;21.92;;;;;;;-145.50;100.00;65435.88;5064788;28;20057;-70
2022/05/07 02:11:29;;;;;;;23.45;20.48;;;;;;;-145.50;100.00;65435.88;5055595;28;20272;-69
2022/05/07 02:13:55;;;;;;;26.15;21.02;;;;;;;-145.50;100.00;65435.88;5066467;28;20048;-68
2022/05/07 02:16:22;;;;;;;28.05;23.35;;;;;;;-145.50;100.00;65435.88;5051967;28;20119;-68
2022/05/07 02:18:48;;;;;;;25.80;22.95;;;;;;;-145.50;100.00;65435.88;5069536;28;20140;-68
2022/05/07 02:21:15;;;;;;;24.83;22.15;;;;;;;-145.50;100.00;65435.88;5065925;28;20448;-68
2022/05/07 02:23:41;;;;;;;25.55;21.85;;;;;;;-145.50;100.00;65435.88;5060947;28;20056;-68
2022/05/07 02:26:08;;;;;;;25.20;22.50;;;;;;;-145.50;100.00;65435.88;5067171;28;20078;-69
2022/05/07 02:28:34;;;;;;;26.27;22.25;;;;;;;-145.50;100.00;65435.88;5061431;28;20052;-69
2022/05/07 02:31:01;;;;;;;22.65;20.33;;;;;;;-145.50;100.00;65435.88;5078454;28;20051;-69
2022/05/07 02:33:27;;;;;;;23.05;20.65;;;;;;;-145.50;100.00;65435.88;5052909;28;20056;-68
2022/05/07 02:35:54;;;;;;;22.83;20.42;;;;;;;-145.50;100.00;65435.88;5061841;28;20063;-68
2022/05/07 02:38:20;;;;;;;23.50;20.30;;;;;;;-145.50;100.00;65435.88;5066959;28;20052;-69
2022/05/07 02:43:34;;;;;;;26.17;21.58;;;;;;;-145.50;100.00;65435.88;5073770;28;20564;-68
2022/05/07 02:46:01;;;;;;;22.88;20.50;;;;;;;-145.50;100.00;65435.88;5079521;28;20051;-69
2022/05/07 02:48:27;;;;;;;24.55;20.25;;;;;;;-145.50;100.00;65435.88;5081742;28;20087;-69
2022/05/07 02:50:54;;;;;;;22.50;20.13;;;;;;;-145.50;100.00;65435.88;5073550;28;20056;-69
2022/05/07 02:53:21;;;;;;;23.83;21.40;;;;;;;-145.50;100.00;65435.88;5076066;28;20058;-69
2022/05/07 02:55:47;;;;;;;24.92;22.23;;;;;;;-145.50;100.00;65435.88;5071494;28;20047;-69
2022/05/07 02:58:14;;;;;;;24.20;20.73;;;;;;;-145.50;100.00;65435.88;5083115;28;20084;-68
2022/05/07 03:00:41;;;;;;;23.42;21.00;;;;;;;-145.50;100.00;65435.88;5076731;28;20052;-69
2022/05/07 03:03:08;;;;;;;24.35;21.77;;;;;;;-145.50;100.00;65435.88;5080210;28;20443;-69
2022/05/07 03:05:34;;;;;;;24.17;21.58;;;;;;;-145.50;100.00;65435.88;5063172;28;20473;-69
2022/05/07 03:08:01;;;;;;;23.08;19.30;;;;;;;-145.50;100.00;65435.88;5046485;28;20543;-69
2022/05/07 03:10:27;;;;;;;21.60;19.45;;;;;;;-145.50;100.00;65435.88;5074153;28;20058;-68
2022/05/07 03:12:54;;;;;;;21.77;19.58;;;;;;;-145.50;100.00;65435.88;5073792;28;20152;-69
2022/05/07 03:15:20;;;;;;;20.38;18.27;;;;;;;-145.50;100.00;65435.88;5081545;28;20161;-68
2022/05/07 03:17:47;;;;;;;21.60;19.27;;;;;;;-145.50;100.00;65435.88;5094110;28;20062;-68
2022/05/07 03:20:16;;;;;;;22.83;19.90;;;;;;;-145.50;100.00;65435.88;5095146;28;20481;-68
2022/05/07 03:22:42;;;;;;;23.30;19.50;;;;;;;-145.50;100.00;65435.88;5081292;28;20067;-69
2022/05/07 03:25:09;;;;;;;22.52;19.83;;;;;;;-145.50;100.00;65435.88;5094422;28;20052;-68
2022/05/07 03:27:36;;;;;;;21.90;19.60;;;;;;;-145.50;100.00;65435.88;5090288;28;20051;-68
2022/05/07 03:30:04;;;;;;;23.25;20.85;;;;;;;-145.50;100.00;65435.88;5078577;28;20056;-69
2022/05/07 03:32:31;;;;;;;22.90;20.48;;;;;;;-145.50;100.00;65435.88;5077250;28;20524;-69
2022/05/07 03:34:57;;;;;;;24.02;21.58;;;;;;;-145.50;100.00;65435.88;5075582;28;20052;-69
2022/05/07 03:37:25;;;;;;;23.30;20.90;;;;;;;-145.50;100.00;65435.88;5072681;28;20048;-69
2022/05/07 03:39:52;;;;;;;25.55;21.70;;;;;;;-145.50;100.00;65435.88;5075508;28;20052;-67
2022/05/07 03:42:20;;;;;;;25.15;22.10;;;;;;;-145.50;100.00;65435.88;5054915;28;20052;-68
2022/05/07 03:44:47;;;;;;;26.15;21.85;;;;;;;-145.50;100.00;65435.88;5080751;28;20533;-68
2022/05/07 03:47:13;;;;;;;25.67;22.83;;;;;;;-145.50;100.00;65435.88;5056919;28;20144;-68
2022/05/07 03:49:40;;;;;;;26.30;23.60;;;;;;;-145.50;100.00;65435.88;5077008;28;20078;-69
2022/05/07 03:54:52;;;;;;;25.17;22.50;;;;;;;-145.50;100.00;65435.88;5071952;28;20435;-68
2022/05/07 03:57:18;;;;;;;26.42;22.95;;;;;;;-145.50;100.00;65435.88;5078468;28;20062;-69
2022/05/07 03:59:45;;;;;;;26.48;22.50;;;;;;;-145.50;100.00;65435.88;5078194;28;20052;-69
2022/05/07 04:02:11;;;;;;;25.23;22.42;;;;;;;-145.50;100.00;65435.88;5075315;28;20110;-68
2022/05/07 04:04:38;;;;;;;26.45;22.92;;;;;;;-145.50;100.00;65435.88;5068003;28;20044;-69
2022/05/07 04:07:04;;;;;;;27.48;23.38;;;;;;;-145.50;100.00;65435.88;5077198;28;20148;-69
2022/05/07 04:09:31;;;;;;;24.25;21.83;;;;;;;-145.50;100.00;65435.88;5059795;28;20135;-68
2022/05/07 04:11:57;;;;;;;24.65;21.73;;;;;;;-145.50;100.00;65435.88;5069189;28;20052;-69
2022/05/07 04:14:24;;;;;;;25.13;22.15;;;;;;;-145.50;100.00;65435.88;5070013;28;20052;-69
2022/05/07 04:16:50;;;;;;;25.00;22.05;;;;;;;-145.50;100.00;65435.88;5040942;28;20148;-68
2022/05/07 04:19:17;;;;;;;27.35;22.85;;;;;;;-145.50;100.00;65435.88;5064590;28;20071;-70
2022/05/07 04:21:43;;;;;;;24.75;21.98;;;;;;;-145.50;100.00;65435.88;5069852;28;20062;-68
2022/05/07 04:24:10;;;;;;;24.48;21.88;;;;;;;-145.50;100.00;65435.88;5072683;28;20043;-69
2022/05/07 04:26:36;;;;;;;24.85;22.23;;;;;;;-145.50;100.00;65435.88;5060538;28;20053;-66
2022/05/07 04:29:02;;;;;;;29.08;23.92;;;;;;;-145.50;100.00;65435.88;5061014;28;20067;-68
2022/05/07 04:31:29;;;;;;;26.15;23.45;;;;;;;-145.50;100.00;65435.88;5078934;28;20052;-67
2022/05/07 04:33:55;;;;;;;27.27;23.10;;;;;;;-145.50;100.00;65435.88;5058539;28;20054;-68
2022/05/07 04:36:22;;;;;;;26.33;23.50;;;;;;;-145.50;100.00;65435.88;5080158;28;20082;-66
2022/05/07 04:38:49;;;;;;;24.35;21.67;;;;;;;-145.50;100.00;65435.88;5066758;28;20287;-66
2022/05/07 04:41:15;;;;;;;24.92;22.27;;;;;;;-145.50;100.00;65435.88;5075291;28;20064;-68
2022/05/07 04:43:42;;;;;;;26.33;23.52;;;;;;;-145.50;100.00;65435.88;5070216;28;20324;-69
2022/05/07 04:46:08;;;;;;;25.92;22.90;;;;;;;-145.50;100.00;65435.88;5072413;28;20147;-68
2022/05/07 04:48:35;;;;;;;27.48;23.58;;;;;;;-145.50;100.00;65435.88;5065588;28;20048;-67
2022/05/07 04:51:01;;;;;;;26.38;23.63;;;;;;;-145.50;100.00;65435.88;5070727;28;20070;-66
2022/05/07 04:53:48;;;;;;;31.60;23.70;;;;;;;-145.50;100.00;65435.88;5073479;28;20519;-66
2022/05/07 04:56:15;;;;;;;28.80;24.10;;;;;;;-145.50;100.00;65435.88;5071580;28;20508;-67
2022/05/07 04:58:43;;;;;;;29.02;22.35;;;;;;;-145.50;100.00;65435.88;5079275;28;20055;-67
2022/05/07 05:01:09;;;;;;;29.00;23.65;;;;;;;-145.50;100.00;65435.88;5068801;28;20056;-68
2022/05/07 05:03:36;;;;;;;28.02;25.02;;;;;;;-145.50;100.00;65435.88;5082442;28;20052;-67
2022/05/07 05:06:02;;;;;;;26.75;23.02;;;;;;;-145.50;100.00;65435.88;5083158;28;20078;-67
2022/05/07 05:08:31;;;;;;;28.65;25.08;;;;;;;-145.50;100.00;65435.88;5049235;28;20052;-66
2022/05/07 05:10:57;;;;;;;31.83;26.38;;;;;;;-145.50;100.00;65435.88;5055007;28;20053;-66
2022/05/07 05:13:24;;;;;;;32.65;27.50;;;;;;;-145.50;100.00;65435.88;5064778;28;20048;-67
2022/05/07 05:15:50;;;;;;;28.33;25.30;;;;;;;-145.50;100.00;65435.88;5069105;28;20044;-67
2022/05/07 05:18:17;;;;;;;31.95;27.13;;;;;;;-145.50;100.00;65435.88;5083900;28;20076;-67
2022/05/07 05:20:44;;;;;;;32.97;26.45;;;;;;;-145.50;100.00;65435.88;5082865;28;20451;-68
2022/05/07 05:23:10;;;;;;;29.65;25.95;;;;;;;-145.50;100.00;65435.88;5064134;28;20511;-66
2022/05/07 05:25:37;;;;;;;33.30;25.08;;;;;;;-145.50;100.00;65435.88;5048525;28;20517;-65
2022/05/07 05:28:03;;;;;;;32.15;28.02;;;;;;;-145.50;100.00;65435.88;5061371;28;20675;-66
2022/05/07 05:30:30;;;;;;;31.55;27.15;;;;;;;-145.50;100.00;65435.88;5052666;28;20592;-67
2022/05/07 05:32:56;;;;;;;33.17;28.33;;;;;;;-145.50;100.00;65435.88;5063552;28;20062;-67
2022/05/07 05:35:23;;;;;;;33.80;27.38;;;;;;;-145.50;100.00;65435.88;5066506;28;20132;-67
2022/05/07 05:37:50;;;;;;;39.40;28.40;;;;;;;-145.50;100.00;65435.88;5056070;28;20514;-67
2022/05/07 05:40:17;;;;;;;38.67;27.67;;;;;;;-145.50;100.00;65435.88;5058723;28;20504;-67
2022/05/07 05:42:43;;;;;;;37.38;28.80;;;;;;;-145.50;100.00;65435.88;5069401;28;20048;-67
2022/05/07 05:45:10;;;;;;;36.92;27.67;;;;;;;-145.50;100.00;65435.88;5071127;28;20670;-67
2022/05/07 05:47:37;;;;;;;33.60;27.67;;;;;;;-145.50;100.00;65435.88;5074745;28;20133;-66
2022/05/07 05:50:04;;;;;;;42.20;29.20;;;;;;;-145.50;100.00;65435.88;5079612;28;20056;-66
2022/05/07 05:52:32;;;;;;;40.13;29.42;;;;;;;-145.50;100.00;65435.88;5076651;28;20078;-67
2022/05/07 05:54:58;;;;;;;35.35;29.05;;;;;;;-145.50;100.00;65435.88;5060255;28;20379;-67
2022/05/07 05:57:26;;;;;;;36.88;28.60;;;;;;;-145.50;100.00;65435.88;5064432;28;20059;-67
2022/05/07 05:59:53;;;;;;;37.72;28.50;;;;;;;-145.50;100.00;65435.88;5071822;28;20056;-67
2022/05/07 06:02:20;;;;;;;37.65;29.13;;;;;;;-145.50;100.00;65435.88;5065620;28;20052;-67
2022/05/07 06:04:47;;;;;;;36.58;28.25;;;;;;;-145.50;100.00;65435.88;5048742;28;20048;-67
2022/05/07 06:07:13;;;;;;;41.67;28.50;;;;;;;-145.50;100.00;65435.88;5059704;28;20044;-67
2022/05/07 06:09:39;;;;;;;36.45;27.45;;;;;;;-145.50;100.00;65435.88;5063909;28;20149;-67
2022/05/07 06:12:06;;;;;;;34.55;26.23;;;;;;;-145.50;100.00;65435.88;5073582;28;20048;-67
2022/05/07 06:14:32;;;;;;;36.05;27.83;;;;;;;-145.50;100.00;65435.88;5081985;28;20051;-68
2022/05/07 06:16:59;;;;;;;36.88;28.17;;;;;;;-145.50;100.00;65435.88;5066829;28;20048;-68
2022/05/07 06:19:26;;;;;;;37.45;27.17;;;;;;;-145.50;100.00;65435.88;5072764;28;20147;-68
2022/05/07 06:21:52;;;;;;;34.85;25.90;;;;;;;-145.50;100.00;65435.88;5054612;28;20523;-68
2022/05/07 06:29:50;;;;;;;33.47;24.92;;;;;;;-145.50;100.00;65435.88;5064509;28;20432;-68
2022/05/07 06:32:18;;;;;;;36.08;27.23;;;;;;;-145.50;100.00;65435.88;5054914;28;20744;-68
2022/05/07 06:34:45;;;;;;;33.15;27.08;;;;;;;-145.50;100.00;65435.88;5072279;28;20082;-69
2022/05/07 06:37:12;;;;;;;33.00;25.90;;;;;;;-145.50;100.00;65435.88;5081924;28;20157;-67
2022/05/07 06:39:39;;;;;;;30.65;24.92;;;;;;;-145.50;100.00;65435.88;5060035;28;20062;-67
2022/05/07 06:42:07;;;;;;;30.50;21.65;;;;;;;-145.50;100.00;65435.88;5069191;28;20066;-67
2022/05/07 06:44:33;;;;;;;28.38;21.45;;;;;;;-145.50;100.00;65435.88;5079428;28;20062;-66
2022/05/07 06:47:00;;;;;;;27.58;21.75;;;;;;;-145.50;100.00;65435.88;5061861;28;20088;-67
2022/05/07 06:49:26;;;;;;;32.90;21.35;;;;;;;-145.50;100.00;65435.88;5073052;28;20056;-68
2022/05/07 06:51:53;;;;;;;30.00;19.52;;;;;;;-145.50;100.00;65435.88;5052781;28;20559;-67
2022/05/07 06:54:21;;;;;;;28.88;19.67;;;;;;;-145.50;100.00;65435.88;5064839;28;20445;-67
2022/05/07 06:56:47;;;;;;;23.50;17.95;;;;;;;-145.50;100.00;65435.88;5058219;28;20049;-67
2022/05/07 06:59:14;;;;;;;28.50;18.13;;;;;;;-145.50;100.00;65435.88;5061701;28;20118;-67
2022/05/07 07:01:41;;;;;;;24.17;17.17;;;;;;;-145.50;100.00;65435.88;5067108;28;20083;-68
2022/05/07 07:04:07;;;;;;;25.10;16.83;;;;;;;-145.50;100.00;65435.88;5059342;28;20051;-67
2022/05/07 07:06:34;;;;;;;26.45;17.23;;;;;;;-145.50;100.00;65435.88;5061156;28;20048;-68
2022/05/07 07:09:00;;;;;;;22.70;16.83;;;;;;;-145.50;100.00;65435.88;5061822;28;20126;-67
2022/05/07 07:11:27;;;;;;;22.65;16.85;;;;;;;-145.50;100.00;65435.88;5072118;28;20060;-67
2022/05/07 07:13:53;;;;;;;24.65;16.88;;;;;;;-145.50;100.00;65435.88;5058921;28;20074;-68
2022/05/07 07:16:20;;;;;;;23.83;15.98;;;;;;;-145.50;100.00;65435.88;5067130;28;20043;-66
2022/05/07 07:18:46;;;;;;;23.33;15.20;;;;;;;-145.50;100.00;65435.88;5067936;28;20144;-68
2022/05/07 07:21:13;;;;;;;23.77;16.10;;;;;;;-145.50;100.00;65435.88;5068951;28;20217;-67
2022/05/07 07:23:39;;;;;;;25.52;16.88;;;;;;;-145.50;100.00;65435.88;5064001;28;20067;-68
2022/05/07 07:26:06;;;;;;;27.40;16.48;;;;;;;-145.50;100.00;65435.88;5058759;28;20052;-67
2022/05/07 07:28:32;;;;;;;26.42;18.23;;;;;;;-145.50;100.00;65435.88;5072244;28;20339;-67
2022/05/07 07:30:59;;;;;;;27.02;17.70;;;;;;;-145.50;100.00;65435.88;5055478;28;20098;-67
2022/05/07 07:33:26;;;;;;;22.85;17.65;;;;;;;-145.50;100.00;65435.88;5064832;28;20052;-67
2022/05/07 07:35:52;;;;;;;28.50;17.58;;;;;;;-145.50;100.00;65435.88;5063954;28;20051;-68
2022/05/07 07:38:26;;;;;;;25.10;17.00;;;;;;;-145.50;100.00;65435.88;5052528;28;20060;-68
2022/05/07 07:40:55;;;;;;;22.50;16.25;;;;;;;-145.50;100.00;65435.88;5063524;28;20053;-65
2022/05/07 07:43:22;;;;;;;22.65;16.63;;;;;;;-145.50;100.00;65435.88;5059512;28;20063;-68
2022/05/07 07:48:34;;;;;;;34.92;18.45;;;;;;;-145.50;100.00;65435.88;5056416;28;20417;-68
2022/05/07 07:51:01;;;;;;;26.00;15.80;;;;;;;-145.50;100.00;65435.88;5065384;28;20051;-68
2022/05/07 07:53:27;;;;;;;23.60;16.55;;;;;;;-145.50;100.00;65435.88;5071075;28;20052;-68
2022/05/07 07:55:53;;;;;;;25.27;16.85;;;;;;;-145.50;100.00;65435.88;5075253;28;20063;-67
2022/05/07 07:58:20;;;;;;;30.67;16.58;;;;;;;-145.50;100.00;65435.88;5086268;28;20404;-67
2022/05/07 08:00:47;;;;;;;25.27;16.73;;;;;;;-145.50;100.00;65435.88;5075622;28;21012;-67
2022/05/07 08:03:15;;;;;;;27.48;15.45;;;;;;;-145.50;100.00;65435.88;5070919;28;20054;-67
2022/05/07 08:05:42;;;;;;;;;;;;;;;-145.50;100.00;65435.88;5060501;28;20045;-66
2022/05/07 08:13:43;;;;;;;27.20;16.88;;;;;;;-145.50;100.00;65435.88;5074403;28;20048;-68
2022/05/07 08:16:10;;;;;;;24.25;16.25;;;;;;;-145.50;100.00;65435.88;5075287;28;20039;-67
2022/05/07 08:18:38;;;;;;;31.23;16.45;;;;;;;-145.50;100.00;65435.88;5062896;28;20067;-68
2022/05/07 08:21:06;;;;;;;25.88;16.02;;;;;;;-145.50;100.00;65435.88;5072428;28;20486;-67
2022/05/07 08:23:33;;;;;;;24.58;17.05;;;;;;;-145.50;100.00;65435.88;5075217;28;20051;-67
2022/05/07 08:26:01;;;;;;;27.25;16.00;;;;;;;-145.50;100.00;65435.88;5080688;28;20085;-67
2022/05/07 08:28:29;;;;;;;22.90;15.60;;;;;;;-145.50;100.00;65435.88;5062837;28;20054;-67
2022/05/07 08:30:55;;;;;;;28.98;15.88;;;;;;;-145.50;100.00;65435.88;5077223;28;20052;-68
2022/05/07 08:33:22;;;;;;;25.85;15.82;;;;;;;-145.50;100.00;65435.88;5079686;28;20083;-68
2022/05/07 08:35:48;;;;;;;24.83;16.17;;;;;;;-145.50;100.00;65435.88;5068758;28;20102;-68
2022/05/07 08:38:15;;;;;;;26.38;16.33;;;;;;;-145.50;100.00;65435.88;5074565;28;20519;-67
2022/05/07 08:40:42;;;;;;;27.65;14.70;;;;;;;-145.50;100.00;65435.88;5065814;28;20086;-67
2022/05/07 08:43:09;;;;;;;22.42;14.02;;;;;;;-145.50;100.00;65435.88;5079709;28;20052;-68
2022/05/07 08:45:39;;;;;;;25.33;13.63;;;;;;;-145.50;100.00;65435.88;5063648;28;20052;-68
2022/05/07 08:48:06;;;;;;;19.55;10.73;;;;;;;-145.50;100.00;65435.88;5058858;28;20048;-68
2022/05/07 08:50:32;;;;;;;19.52;10.65;;;;;;;-145.50;100.00;65435.88;5079024;28;20051;-68
2022/05/07 08:52:59;;;;;;;20.08;10.82;;;;;;;-145.50;100.00;65435.88;5059503;28;20043;-67
2022/05/07 08:55:25;;;;;;;17.90;10.05;;;;;;;-145.50;100.00;65435.88;5083779;28;20048;-67
2022/05/07 08:57:53;;;;;;;23.33;11.82;;;;;;;-145.50;100.00;65435.88;5076290;28;20846;-67
2022/05/07 09:00:21;;;;;;;20.25;10.25;;;;;;;-145.50;100.00;65435.88;5065294;28;20265;-68
2022/05/07 09:02:51;;;;;;;18.98;10.68;;;;;;;-145.50;100.00;65435.88;5058795;28;20040;-68
2022/05/07 09:05:20;;;;;;;21.98;11.13;;;;;;;-145.50;100.00;65435.88;5083266;28;20055;-68
2022/05/07 09:07:55;;;;;;;20.25;10.75;;;;;;;-145.50;100.00;65435.88;5103485;28;20055;-69
2022/05/07 09:10:28;;;;;;;19.33;10.73;;;;;;;-145.50;100.00;65435.88;5085012;28;20052;-68
2022/05/07 09:13:15;;;;;;;19.70;12.02;;;;;;;-145.50;100.00;65435.88;5079566;28;20095;-68
2022/05/07 09:15:56;;;;;;;17.30;10.85;;;;;;;-145.50;100.00;65435.88;5072002;28;20047;-67
2022/05/07 09:18:24;;;;;;;17.00;9.57;;;;;;;-145.50;100.00;65435.88;5080088;28;20174;-68
2022/05/07 09:21:26;;;;;;;30.63;12.15;;;;;;;-145.50;100.00;65435.88;5077476;28;20056;-69
2022/05/07 09:24:06;;;;;;;19.95;10.35;;;;;;;-145.50;100.00;65435.88;5084334;28;20067;-69
2022/05/07 09:26:35;;;;;;;18.83;11.02;;;;;;;-145.50;100.00;65435.88;5073311;28;20782;-69
2022/05/07 09:29:03;;;;;;;21.73;10.48;;;;;;;-145.50;100.00;65435.88;5079058;28;20060;-69
2022/05/07 09:31:31;;;;;;;21.45;11.40;;;;;;;-145.50;100.00;65435.88;5075131;28;20745;-69
2022/05/07 09:35:47;;;;;;;16.75;10.13;;;;;;;-145.50;100.00;65435.88;5084006;28;20052;-67
2022/05/07 09:36:46;;;;;;;21.63;11.30;;;;;;;-145.50;100.00;65435.88;5076611;28;20138;-68
2022/05/07 09:39:16;;;;;;;20.20;11.77;;;;;;;-145.50;100.00;65435.88;5082731;28;20069;-65
2022/05/07 09:41:43;;;;;;;20.67;12.20;;;;;;;-145.50;100.00;65435.88;5075952;28;20048;-67
2022/05/07 09:44:11;;;;;;;21.25;12.50;;;;;;;-145.50;100.00;65435.88;5073830;28;20048;-67
2022/05/07 09:46:39;;;;;;;22.85;11.63;;;;;;;-145.50;100.00;65435.88;5081949;28;20044;-66
2022/05/07 09:49:06;;;;;;;17.83;11.68;;;;;;;-145.50;100.00;65435.88;5073594;28;20060;-68
2022/05/07 09:51:33;;;;;;;19.75;10.80;;;;;;;-145.50;100.00;65435.88;5081570;28;20052;-68
2022/05/07 09:59:32;;;;;;;17.70;9.88;;;;;;;-145.50;100.00;65435.88;5081866;28;20048;-68
2022/05/07 10:02:45;;;;;;;19.60;10.63;;;;;;;-145.50;100.00;65435.88;5073687;28;20487;-67
2022/05/07 10:05:21;;;;;;;24.23;9.70;;;;;;;-145.50;100.00;65435.88;5034771;28;20152;-67
2022/05/07 10:07:59;;;;;;;19.92;10.48;;;;;;;-145.50;100.00;65435.88;5088830;28;20044;-67
2022/05/07 10:10:29;;;;;;;16.17;8.68;;;;;;;-145.50;100.00;65435.88;5079898;28;20059;-68
2022/05/07 10:13:06;;;;;;;20.13;9.57;;;;;;;-145.50;100.00;65435.88;5057171;28;20058;-67
2022/05/07 10:15:33;;;;;;;16.37;10.47;;;;;;;-145.50;100.00;65435.88;5058720;28;20377;-69
2022/05/07 10:18:06;;;;;;;16.03;9.47;;;;;;;-145.50;100.00;65435.88;5060745;28;20128;-70
2022/05/07 10:20:41;;;;;;;16.73;10.10;;;;;;;-145.50;100.00;65435.88;5064192;28;20547;-69
2022/05/07 10:23:09;;;;;;;16.88;10.07;;;;;;;-145.50;100.00;65435.88;5068130;28;20425;-69
2022/05/07 10:25:37;;;;;;;17.38;10.65;;;;;;;-145.50;100.00;65435.88;5056925;28;20051;-69
2022/05/07 10:28:16;;;;;;;18.02;10.68;;;;;;;-145.50;100.00;65435.88;5062875;28;20076;-67
2022/05/07 10:30:54;;;;;;;17.70;10.13;;;;;;;-145.50;100.00;65435.88;5056308;28;20058;-67
2022/05/07 10:33:21;;;;;;;;;;;;;;;-145.50;100.00;65435.88;5070080;28;20076;-68
2022/05/07 10:35:54;;;;;;;17.45;9.38;;;;;;;-145.50;100.00;65435.88;5063405;28;19924;-67
2022/05/07 10:38:23;;;;;;;18.42;10.73;;;;;;;-145.50;100.00;65435.88;5076492;28;20130;-68
2022/05/07 10:40:54;;;;;;;20.33;9.85;;;;;;;-145.50;100.00;65435.88;5059307;28;20809;-67
2022/05/07 10:43:29;;;;;;;17.00;9.98;;;;;;;-145.50;100.00;65435.88;5069518;28;20520;-69
2022/05/07 10:46:00;;;;;;;15.68;9.75;;;;;;;-145.50;100.00;65435.88;5043286;28;20469;-67
2022/05/07 10:48:27;;;;;;;17.48;9.57;;;;;;;-145.50;100.00;65435.88;5058717;28;20055;-67
2022/05/07 10:51:00;;;;;;;17.45;10.93;;;;;;;-145.50;100.00;65435.88;5056039;28;20059;-67
2022/05/07 10:53:38;;;;;;;13.50;9.02;;;;;;;-145.50;100.00;65435.88;5053391;28;20548;-68
2022/05/07 10:56:11;;;;;;;18.80;11.75;;;;;;;-145.50;100.00;65435.88;5059775;28;20167;-68
2022/05/07 10:58:44;;;;;;;17.35;11.18;;;;;;;-145.50;100.00;65435.88;5056753;28;20071;-67
2022/05/07 11:01:10;;;;;;;23.27;11.38;;;;;;;-145.50;100.00;65435.88;5071209;28;20272;-69
2022/05/07 11:03:40;;;;;;;17.15;11.13;;;;;;;-145.50;100.00;65435.88;5073683;28;20048;-68
2022/05/07 11:06:06;;;;;;;16.00;10.48;;;;;;;-145.50;100.00;65435.88;5065982;28;20562;-70
2022/05/07 11:08:35;;;;;;;16.45;11.13;;;;;;;-145.50;100.00;65435.88;5069228;28;20048;-69
2022/05/07 11:11:11;;;;;;;16.73;11.23;;;;;;;-145.50;100.00;65435.88;5061168;28;20057;-69
2022/05/07 11:13:51;;;;;;;18.52;11.52;;;;;;;-145.50;100.00;65435.88;5079812;28;20047;-68
2022/05/07 11:16:19;;;;;;;16.75;9.80;;;;;;;-145.50;100.00;65435.88;5067675;28;20051;-68
2022/05/07 11:18:49;;;;;;;15.65;9.20;;;;;;;-145.50;100.00;65435.88;5075406;28;20059;-69
2022/05/07 11:21:15;;;;;;;16.05;10.02;;;;;;;-145.50;100.00;65435.88;5055099;28;20418;-68
2022/05/07 11:23:43;;;;;;;15.85;9.93;;;;;;;-145.50;100.00;65435.88;5079964;28;20052;-68
2022/05/07 11:26:20;;;;;;;14.50;9.43;;;;;;;-145.50;100.00;65435.88;5080705;28;20497;-67
2022/05/07 11:28:49;;;;;;;13.68;9.20;;;;;;;-145.50;100.00;65435.88;5072087;28;20467;-66